Black Star — 9HA2911 — position and weather

sailwx.info

Track history (hours):
 
Tides and Currents Weather Stations Pressure Air Temp Water Temp Dewpoint Dewpoint Depression Visibility Wind Speed Wind Dir Waves Ship Positions

Black Star

Last reported at 2015-May-28 04:27 UTC. Time now 2015-May-29 00:20 UTC.
Position N 46°13' W 007°40'.

Length 128 m; draft 8.2 m.

Type: Ship (hazmat cat C). MMSI: 256714000.

Date/timePositionNaut miles runAvg speedWind from/ knotsBaromVisibWave heightAir tempDewpointWater temp
2015-May-28 04:27N 46°13' W 007°40'289 9.9
2015-May-26 23:06N 41°41' W 009°57'6 9.1
2015-May-26 22:25N 41°35' W 009°57'12 8.7
2015-May-26 21:05N 41°23' W 009°57'7 9.2
2015-May-26 20:17N 41°16' W 009°57'7 9.4
2015-May-26 19:32N 41°08' W 009°57'10 9.5
2015-May-26 18:32N 40°59' W 009°57'1010.1
2015-May-26 17:33N 40°49' W 009°57'1010.3
2015-May-26 16:33N 40°39' W 009°57'1010.1
2015-May-26 15:33N 40°29' W 009°57'1010.1
2015-May-26 14:33N 40°19' W 009°57'10 9.7
2015-May-26 13:32N 40°09' W 009°57'1010.0
2015-May-26 12:33N 39°59' W 009°57'1010.1
2015-May-26 11:33N 39°49' W 009°58'1010.3
2015-May-26 10:33N 39°38' W 009°57'1110.2
2015-May-26 09:28N 39°27' W 009°57'1010.3
2015-May-26 08:32N 39°18' W 009°57'1110.7
2015-May-26 07:33N 39°07' W 009°57'1111.0
2015-May-26 06:33N 38°56' W 009°57'1110.8
2015-May-26 05:33N 38°45' W 009°57'1110.9
2015-May-26 04:33N 38°35' W 009°55'1111.3
2015-May-26 03:33N 38°24' W 009°52'1111.4
2015-May-26 02:33N 38°13' W 009°48'1111.2
2015-May-26 01:33N 38°02' W 009°45'1110.5
2015-May-26 00:33N 37°51' W 009°42'1110.7
2015-May-25 23:33N 37°41' W 009°39'1110.9
2015-May-25 22:33N 37°31' W 009°35'1110.8
2015-May-25 21:33N 37°20' W 009°32'1110.9
2015-May-25 20:33N 37°09' W 009°29'1110.8
2015-May-25 19:33N 36°59' W 009°26'1110.8
2015-May-25 18:33N 36°49' W 009°21'1111.3
2015-May-25 17:33N 36°41' W 009°11'1111.3
2015-May-25 16:33N 36°38' W 008°58'1111.4
2015-May-25 15:33N 36°35' W 008°44'1211.4
2015-May-25 14:28N 36°32' W 008°29'14711.3
2015-May-25 01:30N 35°58' W 005°31'1010.6
2015-May-25 00:33N 36°01' W 005°20'  
2015-May-21 10:20N 36°50' E 013°07'911.0
2015-May-21 09:33N 36°47' E 013°17'1111.0
2015-May-21 08:33N 36°43' E 013°30'1111.4
2015-May-21 07:33N 36°40' E 013°43'1211.9
2015-May-21 06:33N 36°37' E 013°57'1212.1
2015-May-21 05:33N 36°33' E 014°12'1211.9
2015-May-21 04:33N 36°29' E 014°26'1211.8
2015-May-21 03:33N 36°25' E 014°40'1211.9
2015-May-21 02:33N 36°23' E 014°54'1211.6
2015-May-21 01:33N 36°20' E 015°08'1212.0
2015-May-21 00:33N 36°16' E 015°22'1512.3
2015-May-20 23:21N 36°13' E 015°40'1012.2
2015-May-20 22:33N 36°10' E 015°52'1212.0
2015-May-20 21:33N 36°08' E 016°06'1211.9
2015-May-20 20:33N 36°07' E 016°21'3611.9
2015-May-20 17:31N 35°60' E 017°05'1212.1
2015-May-20 16:33N 35°57' E 017°19'1212.2
2015-May-20 15:33N 35°55' E 017°33'1212.2
2015-May-20 14:32N 35°52' E 017°48'55611.5
2015-May-18 14:07N 33°19' E 028°38'711.8
2015-May-18 13:32N 33°17' E 028°46'1211.9
2015-May-18 12:33N 33°14' E 028°60'1312.1
2015-May-18 11:30N 33°11' E 029°14'1212.3
2015-May-18 10:32N 33°08' E 029°28'  
Track history (hours):
 
Tides and Currents Weather Stations Pressure Air Temp Water Temp Dewpoint Dewpoint Depression Visibility Wind Speed Wind Dir Waves Ship Positions

Black Star

Last reported at 2015-May-28 04:27 UTC. Time now 2015-May-29 00:20 UTC.
Position N 46°13' W 007°40'.

Length 128 m; draft 8.2 m.

Type: Ship (hazmat cat C). MMSI: 256714000.

Date/timePositionNaut miles runAvg speedWind from/ knotsBaromVisibWave heightAir tempDewpointWater temp
2015-May-28 04:27N 46°13' W 007°40'289 9.9
2015-May-26 23:06N 41°41' W 009°57'6 9.1
2015-May-26 22:25N 41°35' W 009°57'12 8.7
2015-May-26 21:05N 41°23' W 009°57'7 9.2
2015-May-26 20:17N 41°16' W 009°57'7 9.4
2015-May-26 19:32N 41°08' W 009°57'10 9.5
2015-May-26 18:32N 40°59' W 009°57'1010.1
2015-May-26 17:33N 40°49' W 009°57'1010.3
2015-May-26 16:33N 40°39' W 009°57'1010.1
2015-May-26 15:33N 40°29' W 009°57'1010.1
2015-May-26 14:33N 40°19' W 009°57'10 9.7
2015-May-26 13:32N 40°09' W 009°57'1010.0
2015-May-26 12:33N 39°59' W 009°57'1010.1
2015-May-26 11:33N 39°49' W 009°58'1010.3
2015-May-26 10:33N 39°38' W 009°57'1110.2
2015-May-26 09:28N 39°27' W 009°57'1010.3
2015-May-26 08:32N 39°18' W 009°57'1110.7
2015-May-26 07:33N 39°07' W 009°57'1111.0
2015-May-26 06:33N 38°56' W 009°57'1110.8
2015-May-26 05:33N 38°45' W 009°57'1110.9
2015-May-26 04:33N 38°35' W 009°55'1111.3
2015-May-26 03:33N 38°24' W 009°52'1111.4
2015-May-26 02:33N 38°13' W 009°48'1111.2
2015-May-26 01:33N 38°02' W 009°45'1110.5
2015-May-26 00:33N 37°51' W 009°42'1110.7
2015-May-25 23:33N 37°41' W 009°39'1110.9
2015-May-25 22:33N 37°31' W 009°35'1110.8
2015-May-25 21:33N 37°20' W 009°32'1110.9
2015-May-25 20:33N 37°09' W 009°29'1110.8
2015-May-25 19:33N 36°59' W 009°26'1110.8
2015-May-25 18:33N 36°49' W 009°21'1111.3
2015-May-25 17:33N 36°41' W 009°11'1111.3
2015-May-25 16:33N 36°38' W 008°58'1111.4
2015-May-25 15:33N 36°35' W 008°44'1211.4
2015-May-25 14:28N 36°32' W 008°29'14711.3
2015-May-25 01:30N 35°58' W 005°31'1010.6
2015-May-25 00:33N 36°01' W 005°20'  
2015-May-21 10:20N 36°50' E 013°07'911.0
2015-May-21 09:33N 36°47' E 013°17'1111.0
2015-May-21 08:33N 36°43' E 013°30'1111.4
2015-May-21 07:33N 36°40' E 013°43'1211.9
2015-May-21 06:33N 36°37' E 013°57'1212.1
2015-May-21 05:33N 36°33' E 014°12'1211.9
2015-May-21 04:33N 36°29' E 014°26'1211.8
2015-May-21 03:33N 36°25' E 014°40'1211.9
2015-May-21 02:33N 36°23' E 014°54'1211.6
2015-May-21 01:33N 36°20' E 015°08'1212.0
2015-May-21 00:33N 36°16' E 015°22'1512.3
2015-May-20 23:21N 36°13' E 015°40'1012.2
2015-May-20 22:33N 36°10' E 015°52'1212.0
2015-May-20 21:33N 36°08' E 016°06'1211.9
2015-May-20 20:33N 36°07' E 016°21'3611.9
2015-May-20 17:31N 35°60' E 017°05'1212.1
2015-May-20 16:33N 35°57' E 017°19'1212.2
2015-May-20 15:33N 35°55' E 017°33'1212.2
2015-May-20 14:32N 35°52' E 017°48'55611.5
2015-May-18 14:07N 33°19' E 028°38'711.8
2015-May-18 13:32N 33°17' E 028°46'1211.9
2015-May-18 12:33N 33°14' E 028°60'1312.1
2015-May-18 11:30N 33°11' E 029°14'1212.3
2015-May-18 10:32N 33°08' E 029°28'  

Dump ship's entire track history